createdAt,value
2023-03-22T00:00:19.671Z,50.40
2023-03-22T00:05:42.459Z,48.90
2023-03-22T00:10:47.924Z,44.50
2023-03-22T00:15:50.665Z,39.50
2023-03-22T00:20:55.899Z,48.80
2023-03-22T00:25:58.401Z,43.60
2023-03-22T00:31:01.468Z,43.50
2023-03-22T00:36:07.765Z,41.20
2023-03-22T00:41:19.125Z,45.40
2023-03-22T00:46:22.133Z,48.30
2023-03-22T00:51:24.818Z,47.60
2023-03-22T00:56:28.676Z,44.10
2023-03-22T01:01:31.963Z,44.80
2023-03-22T01:06:35.409Z,42.10
2023-03-22T01:11:37.863Z,37.10
2023-03-22T01:16:40.566Z,37.30
2023-03-22T01:21:43.466Z,36.50
2023-03-22T01:26:46.175Z,33.90
2023-03-22T01:31:48.905Z,26.50
2023-03-22T01:36:51.602Z,17.90
2023-03-22T01:41:54.069Z,28.60
2023-03-22T01:46:56.567Z,22.90
2023-03-22T01:52:06.926Z,20.60
2023-03-22T01:57:09.772Z,15.30
2023-03-22T02:02:18.981Z,12.10
2023-03-22T02:07:27.002Z,19.90
2023-03-22T02:12:45.754Z,21.00
2023-03-22T02:18:07.104Z,17.80
2023-03-22T02:23:43.448Z,21.90
2023-03-22T02:28:51.678Z,16.00
2023-03-22T02:34:05.969Z,16.50
2023-03-22T02:39:14.439Z,16.50
2023-03-22T02:44:32.815Z,25.50
2023-03-22T02:49:47.982Z,22.30
2023-03-22T02:55:04.410Z,20.50
2023-03-22T03:00:12.424Z,18.50
2023-03-22T03:05:17.282Z,17.10
2023-03-22T03:10:20.959Z,20.40
2023-03-22T03:15:23.753Z,22.40
2023-03-22T03:20:46.587Z,17.80
2023-03-22T03:26:12.377Z,20.80
2023-03-22T03:31:25.683Z,24.70
2023-03-22T03:36:30.707Z,17.20
2023-03-22T03:41:34.387Z,17.80
2023-03-22T03:46:37.175Z,21.20
2023-03-22T03:51:56.004Z,20.30
2023-03-22T03:56:58.640Z,17.10
2023-03-22T04:02:01.177Z,17.70
2023-03-22T04:07:06.560Z,20.10
2023-03-22T04:12:11.728Z,20.00
2023-03-22T04:17:14.230Z,24.00
2023-03-22T04:22:18.550Z,23.60
2023-03-22T04:27:22.398Z,18.00
2023-03-22T04:32:24.986Z,21.00
2023-03-22T04:37:28.153Z,22.20
2023-03-22T04:42:30.642Z,25.50
2023-03-22T04:47:33.130Z,21.60
2023-03-22T04:52:35.686Z,15.50
2023-03-22T04:57:38.187Z,23.70
2023-03-22T05:02:41.508Z,19.20
2023-03-22T05:07:44.297Z,19.00
2023-03-22T05:12:47.115Z,22.60
2023-03-22T05:17:49.630Z,18.90
2023-03-22T05:22:57.079Z,21.10
2023-03-22T05:28:02.216Z,19.60
2023-03-22T05:33:05.077Z,18.90
2023-03-22T05:38:08.407Z,19.10
2023-03-22T05:43:12.030Z,20.20
2023-03-22T05:48:14.565Z,24.60
2023-03-22T05:53:17.157Z,17.70
2023-03-22T05:58:20.036Z,16.90
2023-03-22T06:03:23.304Z,21.00
2023-03-22T06:08:26.732Z,24.40
2023-03-22T06:13:29.545Z,18.60
2023-03-22T06:18:33.114Z,18.70
2023-03-22T06:23:35.743Z,15.80
2023-03-22T06:28:38.593Z,20.70
2023-03-22T06:33:41.157Z,18.30
2023-03-22T06:38:43.746Z,18.20
2023-03-22T06:43:46.265Z,15.60
2023-03-22T06:48:48.764Z,17.80
2023-03-22T06:53:51.263Z,19.80
2023-03-22T06:58:58.302Z,25.40
2023-03-22T07:04:01.114Z,19.90
2023-03-22T07:09:03.671Z,23.90
2023-03-22T07:14:06.217Z,19.30
2023-03-22T07:19:08.897Z,20.40
2023-03-22T07:24:12.068Z,21.80
2023-03-22T07:29:14.529Z,24.20
2023-03-22T07:34:17.095Z,26.20
2023-03-22T07:39:19.812Z,18.20
2023-03-22T07:44:22.804Z,22.90
2023-03-22T07:49:25.307Z,21.60
2023-03-22T07:54:33.901Z,25.10
2023-03-22T07:59:39.921Z,26.00
2023-03-22T08:04:42.676Z,30.30
2023-03-22T08:09:46.086Z,25.80
2023-03-22T08:14:50.973Z,21.40
2023-03-22T08:19:56.679Z,31.00
2023-03-22T08:24:59.190Z,28.20
2023-03-22T08:30:02.368Z,27.70
2023-03-22T08:35:06.337Z,30.50
2023-03-22T08:40:09.819Z,29.20
2023-03-22T08:45:12.398Z,26.30
2023-03-22T08:50:14.944Z,32.50
2023-03-22T08:55:18.075Z,29.40
2023-03-22T09:00:20.669Z,25.80
2023-03-22T09:05:23.146Z,24.40
2023-03-22T09:10:25.672Z,28.40
2023-03-22T09:15:28.201Z,26.50
2023-03-22T09:20:30.676Z,29.70
2023-03-22T09:25:34.290Z,36.60
2023-03-22T09:30:36.784Z,36.30
2023-03-22T09:35:43.680Z,42.30
2023-03-22T09:41:02.643Z,38.90
2023-03-22T09:46:10.008Z,39.10
2023-03-22T09:51:44.373Z,34.80
2023-03-22T09:57:00.381Z,38.10
2023-03-22T10:02:17.456Z,39.50
2023-03-22T10:07:59.138Z,32.10
2023-03-22T10:13:14.606Z,35.40
2023-03-22T10:18:24.849Z,36.80
2023-03-22T10:23:49.197Z,39.40
2023-03-22T10:29:04.474Z,40.50
2023-03-22T10:34:14.551Z,39.90
2023-03-22T10:39:32.937Z,41.50
2023-03-22T10:44:45.795Z,42.00
2023-03-22T10:49:54.650Z,36.60
2023-03-22T10:55:01.297Z,39.00
2023-03-22T11:00:11.296Z,40.30
2023-03-22T11:05:24.332Z,41.40
2023-03-22T11:10:34.867Z,38.20
2023-03-22T11:15:49.318Z,36.70
2023-03-22T11:21:04.220Z,46.60
2023-03-22T11:26:26.391Z,40.00
2023-03-22T11:31:49.484Z,49.90
2023-03-22T11:36:56.899Z,45.00
2023-03-22T11:42:03.798Z,44.90
2023-03-22T11:47:10.312Z,45.40
2023-03-22T11:52:18.569Z,46.50
2023-03-22T11:57:32.407Z,43.60
2023-03-22T12:02:43.461Z,33.00
2023-03-22T12:07:48.511Z,35.20
2023-03-22T12:12:55.812Z,33.80
2023-03-22T12:18:02.701Z,39.30
2023-03-22T12:23:14.068Z,41.80
2023-03-22T12:28:20.820Z,36.70
2023-03-22T12:33:37.813Z,32.20
2023-03-22T12:38:57.976Z,26.40
2023-03-22T12:44:05.876Z,40.00
2023-03-22T12:49:27.682Z,38.50
2023-03-22T12:54:30.784Z,37.50
2023-03-22T12:59:33.442Z,39.30
2023-03-22T13:04:35.865Z,40.20
2023-03-22T13:09:47.635Z,33.80
2023-03-22T13:14:56.157Z,38.90
2023-03-22T13:20:20.000Z,39.20
2023-03-22T13:25:28.957Z,41.10
2023-03-22T13:30:52.446Z,39.70
2023-03-22T13:36:01.080Z,42.40
2023-03-22T13:41:35.482Z,48.70
2023-03-22T13:46:38.015Z,49.90
2023-03-22T13:51:40.977Z,46.30
2023-03-22T13:57:03.569Z,45.60
2023-03-22T14:02:16.188Z,38.80
2023-03-22T14:07:44.278Z,38.70
2023-03-22T14:12:55.802Z,30.80
2023-03-22T14:18:23.727Z,33.00
